Time;durP1;ratioP1;P1;durP2;ratioP2;P2;SDS_P1;SDS_P2;PMS_P1;PMS_P2;Temp;Humidity;BMP_temperature;BMP_pressure;BME280_temperature;BME280_humidity;BME280_pressure;Samples;Min_cycle;Max_cycle;Signal;HPM_P1;HPM_P2
2023/05/28 00:00:48;;;;;;;3.78;3.20;;;17.00;37.20;;;;;;5015291;28;20034;-81
2023/05/28 00:03:20;;;;;;;5.35;3.25;;;16.90;37.20;;;;;;4999272;28;20029;-81
2023/05/28 00:05:52;;;;;;;5.68;3.80;;;16.90;37.30;;;;;;4999818;28;20042;-81
2023/05/28 00:08:37;;;;;;;4.70;3.35;;;16.90;37.40;;;;;;5001359;28;20085;-81
2023/05/28 00:11:06;;;;;;;5.38;3.72;;;16.80;37.30;;;;;;5000305;28;20747;-79
2023/05/28 00:13:32;;;;;;;4.55;3.30;;;16.80;37.50;;;;;;5000481;28;20548;-80
2023/05/28 00:15:58;;;;;;;5.80;4.22;;;16.70;37.40;;;;;;4999201;28;20527;-80
2023/05/28 00:18:28;;;;;;;5.88;3.67;;;16.70;37.60;;;;;;4994859;28;20049;-80
2023/05/28 00:20:56;;;;;;;6.68;4.18;;;16.70;37.70;;;;;;4992671;28;20384;-80
2023/05/28 00:23:25;;;;;;;6.47;3.80;;;16.60;37.70;;;;;;4998719;28;20599;-80
2023/05/28 00:25:51;;;;;;;3.83;3.47;;;16.60;37.80;;;;;;5001052;28;20088;-79
2023/05/28 00:28:18;;;;;;;4.93;3.80;;;16.50;38.30;;;;;;4992122;28;20481;-80
2023/05/28 00:30:44;;;;;;;5.13;3.55;;;16.50;37.90;;;;;;4997964;28;20750;-80
2023/05/28 00:33:10;;;;;;;6.28;4.13;;;16.50;37.90;;;;;;4998203;28;20676;-80
2023/05/28 00:35:39;;;;;;;4.70;3.25;;;16.50;38.10;;;;;;4999616;28;20140;-80
2023/05/28 00:38:06;;;;;;;6.53;3.67;;;16.50;38.20;;;;;;4999962;28;20288;-81
2023/05/28 00:40:32;;;;;;;4.65;3.67;;;16.50;38.30;;;;;;4999434;28;20050;-80
2023/05/28 00:42:58;;;;;;;4.43;3.60;;;16.50;38.40;;;;;;4998027;28;20041;-80
2023/05/28 00:45:30;;;;;;;4.85;3.45;;;16.40;38.30;;;;;;4997539;28;20045;-80
2023/05/28 00:47:57;;;;;;;6.72;3.97;;;16.40;38.40;;;;;;4999021;28;20432;-80
2023/05/28 00:50:28;;;;;;;5.30;3.80;;;16.40;38.40;;;;;;4996266;28;20042;-80
2023/05/28 00:52:57;;;;;;;4.90;3.80;;;16.40;38.50;;;;;;4997627;28;20508;-81
2023/05/28 00:55:23;;;;;;;6.47;3.72;;;16.40;38.60;;;;;;4998175;28;20117;-80
2023/05/28 00:57:54;;;;;;;5.63;3.70;;;16.40;38.70;;;;;;4980436;28;20038;-80
2023/05/28 01:00:21;;;;;;;5.85;3.92;;;16.40;38.80;;;;;;4999392;28;20068;-80
2023/05/28 01:02:48;;;;;;;3.75;3.33;;;16.40;38.80;;;;;;4997726;28;20576;-80
2023/05/28 01:05:14;;;;;;;5.25;3.97;;;16.40;38.90;;;;;;5000045;28;20057;-81
2023/05/28 01:07:40;;;;;;;8.60;5.10;;;16.40;39.00;;;;;;4998722;28;20465;-80
2023/05/28 01:10:10;;;;;;;7.07;3.65;;;16.40;39.00;;;;;;4999332;28;20385;-80
2023/05/28 01:12:44;;;;;;;6.07;3.50;;;16.30;39.00;;;;;;4997728;28;20046;-80
2023/05/28 01:15:16;;;;;;;5.50;3.70;;;16.40;39.20;;;;;;4999935;28;20057;-80
2023/05/28 01:17:44;;;;;;;6.03;3.13;;;16.40;39.30;;;;;;4994698;28;20084;-80
2023/05/28 01:20:13;;;;;;;4.60;3.03;;;16.40;39.40;;;;;;5000150;28;20037;-80
2023/05/28 01:22:45;;;;;;;5.18;3.35;;;16.40;39.50;;;;;;4999343;28;20034;-79
2023/05/28 01:25:12;;;;;;;;;;;16.40;39.50;;;;;;4998798;28;20042;-79
2023/05/28 01:27:39;;;;;;;4.85;3.33;;;16.40;39.50;;;;;;4996446;28;19932;-78
2023/05/28 01:30:09;;;;;;;5.47;4.07;;;16.30;39.10;;;;;;4990430;28;20440;-80
2023/05/28 01:32:44;;;;;;;5.85;3.47;;;16.30;39.30;;;;;;5000747;28;20449;-79
2023/05/28 01:35:12;;;;;;;5.78;3.22;;;16.30;39.30;;;;;;5000775;28;20125;-78
2023/05/28 01:37:48;;;;;;;7.07;4.15;;;16.30;39.50;;;;;;5017353;28;20120;-79
2023/05/28 01:40:16;;;;;;;5.28;3.22;;;16.30;39.70;;;;;;4999777;28;20045;-78
2023/05/28 01:42:46;;;;;;;4.55;3.40;;;16.30;39.70;;;;;;5001236;28;20507;-79
2023/05/28 01:45:14;;;;;;;4.82;3.40;;;16.30;39.80;;;;;;4997610;28;20054;-78
2023/05/28 01:47:47;;;;;;;3.67;3.17;;;16.30;39.90;;;;;;5004097;28;20058;-78
2023/05/28 01:50:16;;;;;;;4.70;3.28;;;16.30;40.00;;;;;;5002464;28;20064;-78
2023/05/28 01:52:49;;;;;;;4.00;3.30;;;16.30;40.00;;;;;;4998967;28;20044;-78
2023/05/28 01:55:15;;;;;;;3.95;3.00;;;16.30;40.10;;;;;;5005181;28;20029;-77
2023/05/28 01:57:44;;;;;;;4.43;3.55;;;16.30;40.20;;;;;;5010667;28;20041;-78
2023/05/28 02:00:11;;;;;;;3.83;3.17;;;16.30;40.30;;;;;;4996627;28;20266;-78
2023/05/28 02:02:43;;;;;;;3.20;2.83;;;16.30;40.40;;;;;;5006032;28;20672;-78
2023/05/28 02:05:15;;;;;;;4.63;2.85;;;16.30;40.50;;;;;;5004205;28;20411;-78
2023/05/28 02:07:41;;;;;;;4.47;3.08;;;16.30;40.60;;;;;;5002240;28;20080;-78
2023/05/28 02:10:11;;;;;;;4.53;2.95;;;16.30;40.70;;;;;;4995665;28;20041;-78
2023/05/28 02:12:43;;;;;;;5.30;2.73;;;16.30;40.80;;;;;;5001497;28;20030;-78
2023/05/28 02:15:11;;;;;;;4.78;3.42;;;16.20;40.70;;;;;;5000505;28;20782;-78
2023/05/28 02:17:37;;;;;;;3.30;2.95;;;16.20;40.80;;;;;;5004199;28;20034;-79
2023/05/28 02:20:04;;;;;;;4.82;3.60;;;16.20;40.90;;;;;;4995887;28;20126;-78
2023/05/28 02:22:36;;;;;;;;;;;16.20;41.60;;;;;;5015258;28;20036;-79
2023/05/28 02:25:05;;;;;;;4.90;3.05;;;16.20;40.90;;;;;;5003559;28;19913;-78
2023/05/28 02:27:31;;;;;;;4.28;3.03;;;16.20;40.70;;;;;;5004354;28;20096;-80
2023/05/28 02:30:02;;;;;;;3.17;2.50;;;16.20;40.90;;;;;;4999102;28;20092;-79
2023/05/28 02:32:28;;;;;;;5.80;3.00;;;16.10;40.90;;;;;;5002467;28;20420;-79
2023/05/28 02:34:54;;;;;;;4.57;3.28;;;16.10;41.10;;;;;;5005381;28;20100;-78
2023/05/28 02:37:23;;;;;;;4.78;2.63;;;16.10;41.10;;;;;;5003695;28;20041;-79
2023/05/28 02:39:52;;;;;;;5.60;3.05;;;16.20;41.50;;;;;;4984635;28;20461;-79
2023/05/28 02:42:39;;;;;;;4.18;2.88;;;16.10;41.30;;;;;;4962919;28;20039;-80
2023/05/28 02:45:06;;;;;;;3.58;2.50;;;16.10;41.40;;;;;;5009508;28;20541;-80
2023/05/28 02:47:32;;;;;;;4.18;3.15;;;16.20;41.90;;;;;;5003388;28;20074;-79
2023/05/28 02:49:59;;;;;;;4.13;2.42;;;16.10;41.50;;;;;;5002460;28;20022;-80
2023/05/28 02:52:27;;;;;;;2.50;2.30;;;16.10;41.60;;;;;;5003933;28;20030;-79
2023/05/28 02:54:53;;;;;;;4.53;2.80;;;16.10;41.60;;;;;;5001783;28;20037;-78
2023/05/28 02:57:25;;;;;;;3.50;2.50;;;16.10;41.70;;;;;;5003220;28;20078;-78
2023/05/28 02:59:51;;;;;;;3.03;2.35;;;16.10;41.80;;;;;;5001905;28;20066;-79
2023/05/28 03:02:20;;;;;;;6.05;3.15;;;16.10;41.80;;;;;;5003691;28;20042;-79
2023/05/28 03:04:47;;;;;;;2.92;2.28;;;16.10;41.90;;;;;;5003220;28;20044;-79
2023/05/28 03:07:20;;;;;;;3.05;2.20;;;16.10;42.00;;;;;;5006350;28;20145;-79
2023/05/28 03:09:46;;;;;;;3.92;3.15;;;16.10;42.00;;;;;;5006542;28;20058;-79
2023/05/28 03:12:13;;;;;;;3.42;2.38;;;16.10;42.10;;;;;;4993287;28;20036;-78
2023/05/28 03:14:39;;;;;;;3.13;2.30;;;16.10;42.20;;;;;;5005948;28;20388;-79
2023/05/28 03:17:06;;;;;;;2.78;2.22;;;16.10;42.30;;;;;;5006640;28;20500;-79
2023/05/28 03:19:32;;;;;;;2.80;2.60;;;16.10;42.30;;;;;;5003248;28;20473;-79
2023/05/28 03:21:59;;;;;;;3.28;2.63;;;16.10;42.40;;;;;;5000857;28;20041;-79
2023/05/28 03:24:34;;;;;;;2.35;2.00;;;16.10;42.50;;;;;;5021353;28;20029;-78
2023/05/28 03:27:02;;;;;;;2.53;2.13;;;16.10;42.50;;;;;;5005986;28;20034;-78
2023/05/28 03:29:29;;;;;;;3.20;2.60;;;16.00;42.40;;;;;;5000637;28;20558;-78
2023/05/28 03:32:15;;;;;;;2.95;2.25;;;16.00;42.50;;;;;;5016923;28;20029;-78
2023/05/28 03:34:42;;;;;;;3.88;2.53;;;16.00;42.50;;;;;;5006425;28;20022;-78
2023/05/28 03:37:17;;;;;;;2.38;2.17;;;16.00;42.60;;;;;;5007806;28;20083;-77
2023/05/28 03:39:44;;;;;;;3.55;2.42;;;16.00;42.70;;;;;;5000010;28;20037;-80
2023/05/28 03:42:10;;;;;;;3.67;2.63;;;15.90;42.60;;;;;;5007757;28;20617;-80
2023/05/28 03:44:37;;;;;;;2.35;2.10;;;16.00;42.90;;;;;;4990255;28;20401;-79
2023/05/28 03:47:07;;;;;;;3.17;2.88;;;15.90;42.80;;;;;;5007841;28;20452;-80
2023/05/28 03:49:39;;;;;;;3.72;2.22;;;15.90;42.90;;;;;;5002877;28;20018;-81
2023/05/28 03:52:09;;;;;;;2.45;2.25;;;15.90;42.90;;;;;;5007206;28;20409;-80
2023/05/28 03:54:48;;;;;;;5.75;2.20;;;15.90;42.90;;;;;;4997245;28;20483;-79
2023/05/28 03:57:18;;;;;;;2.42;2.05;;;15.90;42.90;;;;;;5010346;28;20112;-78
2023/05/28 03:59:44;;;;;;;2.90;2.28;;;15.90;43.00;;;;;;5009049;28;20041;-79
2023/05/28 04:02:10;;;;;;;4.65;2.72;;;15.90;43.10;;;;;;5013221;28;20129;-78
2023/05/28 04:04:37;;;;;;;2.33;2.13;;;15.90;43.10;;;;;;5012949;28;20034;-78
2023/05/28 04:07:04;;;;;;;3.35;2.58;;;15.90;43.20;;;;;;5000815;28;20040;-78
2023/05/28 04:09:31;;;;;;;2.70;2.03;;;15.90;43.20;;;;;;5006518;28;20018;-77
2023/05/28 04:11:57;;;;;;;3.78;2.25;;;15.90;43.30;;;;;;5006690;28;20444;-78
2023/05/28 04:14:24;;;;;;;3.42;1.95;;;15.90;43.30;;;;;;5005319;28;20030;-78
2023/05/28 04:16:53;;;;;;;3.50;2.40;;;15.90;43.40;;;;;;4996245;28;20044;-78
2023/05/28 04:19:22;;;;;;;3.45;2.30;;;15.90;43.40;;;;;;5004048;28;20084;-79
2023/05/28 04:21:51;;;;;;;4.82;3.42;;;15.90;43.40;;;;;;5013712;28;20453;-78
2023/05/28 04:24:18;;;;;;;3.20;2.13;;;15.90;43.50;;;;;;5004512;28;20040;-78
2023/05/28 04:26:47;;;;;;;3.67;2.40;;;16.00;43.70;;;;;;5006978;28;20084;-78
2023/05/28 04:29:15;;;;;;;2.30;1.80;;;15.90;43.50;;;;;;4994253;28;20120;-78
2023/05/28 04:31:51;;;;;;;2.45;1.92;;;15.90;43.50;;;;;;5009483;28;20042;-80
2023/05/28 04:34:20;;;;;;;2.92;2.38;;;15.90;43.60;;;;;;5005694;28;20038;-79
2023/05/28 04:36:51;;;;;;;2.22;2.03;;;15.90;43.60;;;;;;4994447;28;20038;-80
2023/05/28 04:39:19;;;;;;;2.08;1.88;;;16.00;43.80;;;;;;5002125;28;20026;-80
2023/05/28 04:41:45;;;;;;;2.85;2.17;;;15.90;43.60;;;;;;5000463;28;20063;-80
2023/05/28 04:44:15;;;;;;;2.15;1.95;;;16.00;43.80;;;;;;5001691;28;20057;-80
2023/05/28 04:46:43;;;;;;;3.17;2.63;;;16.00;43.80;;;;;;5004586;28;20058;-79
2023/05/28 04:49:11;;;;;;;2.10;1.85;;;16.00;43.90;;;;;;4998128;28;20030;-79
2023/05/28 04:51:38;;;;;;;2.55;2.30;;;16.00;43.90;;;;;;4995055;28;20116;-79
2023/05/28 04:54:05;;;;;;;3.17;2.20;;;16.00;43.90;;;;;;4996034;28;20096;-79
2023/05/28 04:56:31;;;;;;;3.10;2.25;;;16.00;43.90;;;;;;5001404;28;20123;-78
2023/05/28 04:59:03;;;;;;;2.25;2.05;;;16.10;44.10;;;;;;4999008;28;20523;-79
2023/05/28 05:01:32;;;;;;;3.10;2.42;;;16.10;44.10;;;;;;5002567;28;20034;-78
2023/05/28 05:04:02;;;;;;;3.40;2.78;;;16.10;44.10;;;;;;4997087;28;20077;-79
2023/05/28 05:06:31;;;;;;;3.35;2.60;;;16.10;44.00;;;;;;4998372;28;20048;-79
2023/05/28 05:09:07;;;;;;;2.30;2.00;;;16.20;44.10;;;;;;4988281;28;20038;-79
2023/05/28 05:11:36;;;;;;;2.45;2.25;;;16.30;44.30;;;;;;5013843;28;20045;-79
2023/05/28 05:14:07;;;;;;;2.55;2.35;;;16.30;44.20;;;;;;4998500;28;20490;-79
2023/05/28 05:16:49;;;;;;;3.65;2.10;;;16.40;44.30;;;;;;4997655;28;20034;-79
2023/05/28 05:19:35;;;;;;;3.60;2.45;;;16.50;44.40;;;;;;4994550;28;20502;-78
2023/05/28 05:22:03;;;;;;;3.08;2.10;;;16.50;44.30;;;;;;5000897;28;20038;-79
2023/05/28 05:24:32;;;;;;;2.42;2.10;;;16.60;44.50;;;;;;4997238;28;20049;-79
2023/05/28 05:26:58;;;;;;;3.47;2.10;;;16.60;44.40;;;;;;4999103;28;20291;-79
2023/05/28 05:29:25;;;;;;;3.92;2.70;;;16.70;44.50;;;;;;4989970;28;20469;-80
2023/05/28 05:31:52;;;;;;;2.75;2.47;;;16.80;44.70;;;;;;4999339;28;20497;-80
2023/05/28 05:34:24;;;;;;;3.53;2.00;;;16.90;44.80;;;;;;4993993;28;20049;-81
2023/05/28 05:37:09;;;;;;;3.75;2.20;;;17.00;44.80;;;;;;4995874;28;20061;-79
2023/05/28 05:39:38;;;;;;;2.95;2.00;;;17.10;44.80;;;;;;4996951;28;20116;-79
2023/05/28 05:42:34;;;;;;;3.95;2.30;;;17.20;45.00;;;;;;4997073;28;20044;-80
2023/05/28 05:45:00;;;;;;;2.55;2.35;;;17.40;45.00;;;;;;5013430;28;20124;-78
2023/05/28 05:47:27;;;;;;;3.53;2.35;;;17.60;45.30;;;;;;4998376;28;20405;-79
2023/05/28 05:49:55;;;;;;;2.85;2.05;;;17.70;45.30;;;;;;4997199;28;20097;-80
2023/05/28 05:52:21;;;;;;;3.00;2.55;;;18.00;45.70;;;;;;4997071;28;20103;-83
2023/05/28 05:54:51;;;;;;;4.18;2.53;;;18.10;45.60;;;;;;4983010;28;20037;-83
2023/05/28 05:57:18;;;;;;;2.72;2.17;;;18.30;45.70;;;;;;4989916;28;20073;-80
2023/05/28 05:59:44;;;;;;;4.18;3.03;;;18.50;45.80;;;;;;4993684;28;20452;-80
2023/05/28 06:02:16;;;;;;;4.82;2.70;;;18.80;46.20;;;;;;4986635;28;21078;-84
2023/05/28 06:04:49;;;;;;;4.50;2.67;;;19.00;46.20;;;;;;4977478;28;20030;-87
2023/05/28 06:07:27;;;;;;;2.97;2.42;;;19.30;46.40;;;;;;4993379;28;20046;-87
2023/05/28 06:10:14;;;;;;;3.15;2.75;;;19.50;46.40;;;;;;4983416;28;20105;-87
2023/05/28 06:12:41;;;;;;;2.70;2.20;;;19.80;46.50;;;;;;4991330;28;20445;-85
2023/05/28 06:15:08;;;;;;;3.35;2.30;;;20.10;46.70;;;;;;4989265;28;20062;-86
2023/05/28 06:17:35;;;;;;;3.20;2.33;;;20.40;46.70;;;;;;4997572;28;20046;-87
2023/05/28 06:20:01;;;;;;;3.55;2.65;;;20.70;46.80;;;;;;4987582;28;20056;-85
2023/05/28 06:22:36;;;;;;;5.43;2.70;;;20.90;46.70;;;;;;4989074;28;20034;-82
2023/05/28 06:25:04;;;;;;;4.65;2.63;;;21.30;46.80;;;;;;4994270;28;20058;-89
2023/05/28 06:27:32;;;;;;;3.17;2.17;;;21.70;46.80;;;;;;4992108;28;20042;-85
2023/05/28 06:29:58;;;;;;;4.13;2.15;;;22.20;46.90;;;;;;4986921;28;20504;-83
2023/05/28 06:32:24;;;;;;;2.90;2.33;;;22.50;46.80;;;;;;5000534;28;20052;-84
2023/05/28 06:34:57;;;;;;;2.38;2.00;;;22.90;46.90;;;;;;4987022;28;20118;-83
2023/05/28 06:37:25;;;;;;;3.00;2.42;;;23.20;46.80;;;;;;4990472;28;20037;-80
2023/05/28 06:39:51;;;;;;;3.10;2.35;;;23.60;46.90;;;;;;4992711;28;20042;-83
2023/05/28 06:42:17;;;;;;;3.03;2.30;;;24.10;47.10;;;;;;5013959;28;20041;-84
2023/05/28 06:45:03;;;;;;;2.85;2.03;;;24.40;47.00;;;;;;4990275;28;20034;-85
2023/05/28 06:47:33;;;;;;;2.83;2.08;;;24.80;47.10;;;;;;4989807;28;20509;-83
2023/05/28 06:50:08;;;;;;;5.03;2.53;;;25.20;46.80;;;;;;4997874;28;20029;-82
2023/05/28 06:52:34;;;;;;;2.88;2.25;;;25.60;46.30;;;;;;4982873;28;20089;-82
2023/05/28 06:55:11;;;;;;;3.25;2.30;;;26.10;45.80;;;;;;4998346;28;20038;-81
2023/05/28 06:57:44;;;;;;;3.45;2.00;;;26.50;45.20;;;;;;4978987;28;20039;-80
2023/05/28 07:00:30;;;;;;;3.92;2.53;;;26.90;44.70;;;;;;4986305;28;20513;-78
2023/05/28 07:03:40;;;;;;;2.72;2.45;;;27.30;44.90;;;;;;4992276;28;20495;-80
2023/05/28 07:06:30;;;;;;;2.97;1.95;;;27.50;43.90;;;;;;4981088;28;20045;-79
2023/05/28 07:08:57;;;;;;;3.08;1.95;;;27.60;43.80;;;;;;4994156;28;20115;-79
2023/05/28 07:11:26;;;;;;;4.32;2.20;;;27.80;43.70;;;;;;4995328;28;20159;-79
2023/05/28 07:13:54;;;;;;;4.28;3.30;;;28.00;43.40;;;;;;4982132;28;20034;-84
2023/05/28 07:16:22;;;;;;;3.72;3.13;;;28.20;43.10;;;;;;4998174;28;20587;-82
2023/05/28 07:18:48;;;;;;;4.90;3.65;;;28.40;42.40;;;;;;4993878;28;20040;-81
2023/05/28 07:21:23;;;;;;;5.38;3.53;;;28.50;42.00;;;;;;4990524;28;20494;-81
2023/05/28 07:23:50;;;;;;;5.43;3.42;;;28.40;41.80;;;;;;4996466;28;20553;-81
2023/05/28 07:26:20;;;;;;;4.57;3.33;;;28.10;41.90;;;;;;4990297;28;20177;-79
2023/05/28 07:28:46;;;;;;;4.22;2.92;;;27.80;42.20;;;;;;4987402;28;20517;-80
2023/05/28 07:31:12;;;;;;;4.30;3.55;;;27.60;42.40;;;;;;4995186;28;20032;-79
2023/05/28 07:33:38;;;;;;;4.38;3.42;;;27.30;42.60;;;;;;4995364;28;20639;-82
2023/05/28 07:36:06;;;;;;;3.78;3.28;;;27.20;42.70;;;;;;4990881;28;20056;-82
2023/05/28 07:38:50;;;;;;;5.32;3.35;;;27.10;42.40;;;;;;4993425;28;20551;-82
2023/05/28 07:41:22;;;;;;;5.43;3.90;;;27.30;42.20;;;;;;4993421;28;20053;-83
2023/05/28 07:43:58;;;;;;;4.03;3.13;;;27.40;41.70;;;;;;4994109;28;20034;-82
2023/05/28 07:46:34;;;;;;;3.58;2.75;;;27.60;41.40;;;;;;4996171;28;20053;-81
2023/05/28 07:49:05;;;;;;;4.25;3.75;;;27.70;41.10;;;;;;4991009;28;20030;-83
2023/05/28 07:51:41;;;;;;;3.95;2.97;;;27.70;40.90;;;;;;4994325;28;20066;-85
2023/05/28 07:54:24;;;;;;;4.38;3.85;;;27.80;40.80;;;;;;4995981;28;20133;-89
2023/05/28 07:56:55;;;;;;;5.70;3.75;;;27.90;40.90;;;;;;4993925;28;20037;-86
2023/05/28 07:59:33;;;;;;;4.25;3.58;;;27.70;40.80;;;;;;4993615;28;20101;-87
2023/05/28 08:02:00;;;;;;;4.65;3.63;;;27.70;41.00;;;;;;4999369;28;20049;-88
2023/05/28 08:04:26;;;;;;;4.38;3.97;;;27.50;41.20;;;;;;4995531;28;20365;-86
2023/05/28 08:07:00;;;;;;;5.20;3.70;;;27.20;41.50;;;;;;4992642;28;20042;-90
2023/05/28 08:09:32;;;;;;;4.50;3.10;;;27.00;41.90;;;;;;4993897;28;20042;-89
2023/05/28 08:12:00;;;;;;;6.47;3.25;;;26.90;42.20;;;;;;4996355;28;20045;-88
2023/05/28 08:14:36;;;;;;;4.47;3.35;;;26.70;42.30;;;;;;4991627;28;20049;-89
2023/05/28 08:17:10;;;;;;;4.53;3.10;;;26.70;42.50;;;;;;4999312;28;20049;-85
2023/05/28 08:19:45;;;;;;;5.93;3.50;;;26.70;42.50;;;;;;4989498;28;20532;-86
2023/05/28 08:22:36;;;;;;;2.70;2.50;;;26.80;42.50;;;;;;4996053;28;20429;-87
2023/05/28 08:25:06;;;;;;;3.60;2.70;;;26.80;42.40;;;;;;4994044;28;20056;-86
2023/05/28 08:27:34;;;;;;;5.38;3.30;;;26.90;42.40;;;;;;5015477;28;20107;-90
2023/05/28 08:30:00;;;;;;;4.35;3.33;;;26.90;42.30;;;;;;4989409;28;20035;-85
2023/05/28 08:32:26;;;;;;;4.30;3.25;;;26.90;42.20;;;;;;4998691;28;20448;-86
2023/05/28 08:34:53;;;;;;;3.58;2.50;;;27.00;42.30;;;;;;4989481;28;20113;-86
2023/05/28 08:37:19;;;;;;;3.65;2.95;;;27.00;42.30;;;;;;4976991;28;20072;-83
2023/05/28 08:40:08;;;;;;;4.65;3.05;;;27.00;42.80;;;;;;4986156;28;20045;-81
2023/05/28 08:42:36;;;;;;;5.82;3.60;;;27.10;42.20;;;;;;4990345;28;20038;-83
2023/05/28 08:45:06;;;;;;;5.55;3.47;;;27.20;42.20;;;;;;4995396;28;20323;-83
2023/05/28 08:47:37;;;;;;;5.47;3.67;;;27.20;42.20;;;;;;4990139;28;20043;-84
2023/05/28 08:50:16;;;;;;;6.28;3.47;;;27.30;42.20;;;;;;4994326;28;20671;-83
2023/05/28 08:53:04;;;;;;;4.22;3.75;;;27.30;42.20;;;;;;4996531;28;20150;-82
2023/05/28 08:55:30;;;;;;;4.63;3.55;;;27.40;42.20;;;;;;4997150;28;20042;-82
2023/05/28 08:58:12;;;;;;;5.80;3.95;;;27.60;42.20;;;;;;4994612;28;20092;-81
2023/05/28 09:00:40;;;;;;;4.32;3.30;;;27.70;42.20;;;;;;4991553;28;20034;-83
2023/05/28 09:03:32;;;;;;;5.05;3.40;;;27.80;42.30;;;;;;4989868;28;20552;-81
2023/05/28 09:06:06;;;;;;;5.85;3.58;;;28.00;42.20;;;;;;4994119;28;20130;-83
2023/05/28 09:08:34;;;;;;;4.15;3.75;;;28.00;41.90;;;;;;5008912;28;20093;-84
2023/05/28 09:11:12;;;;;;;4.60;3.22;;;28.00;42.30;;;;;;4987092;28;20042;-81
2023/05/28 09:13:48;;;;;;;4.28;3.55;;;27.90;41.70;;;;;;4988526;28;20037;-81
2023/05/28 09:16:23;;;;;;;5.60;3.72;;;27.80;41.80;;;;;;4993627;28;20603;-81
2023/05/28 09:19:03;;;;;;;5.72;3.55;;;27.90;41.90;;;;;;4990573;28;20034;-82
2023/05/28 09:21:30;;;;;;;4.68;3.28;;;28.00;41.90;;;;;;4988156;28;20208;-83
2023/05/28 09:24:01;;;;;;;4.88;3.10;;;28.20;42.00;;;;;;4973466;28;20131;-82
2023/05/28 09:26:57;;;;;;;4.32;2.88;;;28.30;42.00;;;;;;4995022;28;20053;-82
2023/05/28 09:29:36;;;;;;;5.50;3.63;;;28.40;41.90;;;;;;4987254;28;20046;-82
2023/05/28 09:32:05;;;;;;;5.38;3.22;;;28.50;41.80;;;;;;4993720;28;20060;-83
2023/05/28 09:34:31;;;;;;;5.72;2.65;;;28.60;41.90;;;;;;5000244;28;20034;-81
2023/05/28 09:37:01;;;;;;;3.40;3.10;;;28.60;41.90;;;;;;4985228;28;20121;-84
2023/05/28 09:39:33;;;;;;;4.18;2.78;;;28.70;42.00;;;;;;4993890;28;20064;-82
2023/05/28 09:42:05;;;;;;;4.75;2.80;;;28.80;42.00;;;;;;4991805;28;20185;-82
2023/05/28 09:44:40;;;;;;;4.88;2.75;;;28.80;41.90;;;;;;4994173;28;20172;-83
2023/05/28 09:47:16;;;;;;;4.55;2.55;;;28.90;41.90;;;;;;4997093;28;20494;-82
2023/05/28 09:49:46;;;;;;;3.75;3.05;;;29.00;41.90;;;;;;4993160;28;20122;-80
2023/05/28 09:52:20;;;;;;;5.10;2.60;;;29.10;41.80;;;;;;4993975;28;20099;-82
2023/05/28 09:54:55;;;;;;;3.22;2.22;;;29.20;41.80;;;;;;4997087;28;20037;-83
2023/05/28 09:57:29;;;;;;;5.97;2.65;;;29.30;41.70;;;;;;4994835;28;20520;-81
2023/05/28 09:59:55;;;;;;;2.75;2.55;;;29.30;41.60;;;;;;4977811;28;20637;-81
2023/05/28 10:02:30;;;;;;;3.60;2.22;;;29.50;41.60;;;;;;4998250;28;20053;-82
2023/05/28 10:05:20;;;;;;;2.83;2.45;;;29.50;41.70;;;;;;4952627;28;20187;-81
2023/05/28 10:07:52;;;;;;;3.92;2.67;;;29.50;41.60;;;;;;4992995;28;20342;-81
2023/05/28 10:10:21;;;;;;;3.85;2.53;;;29.60;41.70;;;;;;4999626;28;20045;-84
2023/05/28 10:12:58;;;;;;;4.28;2.90;;;29.60;41.70;;;;;;4993514;28;20049;-83
2023/05/28 10:15:26;;;;;;;3.47;2.50;;;29.70;41.80;;;;;;4991740;28;20033;-83
2023/05/28 10:17:53;;;;;;;5.47;3.00;;;29.90;41.90;;;;;;4995624;28;20045;-84
2023/05/28 10:20:19;;;;;;;4.63;2.95;;;30.00;42.00;;;;;;4989611;28;20821;-85
2023/05/28 10:22:46;;;;;;;3.92;2.00;;;30.10;42.00;;;;;;4993010;28;20068;-86
2023/05/28 10:25:12;;;;;;;5.05;2.58;;;30.20;42.00;;;;;;4994597;28;20041;-87
2023/05/28 10:27:45;;;;;;;3.65;2.75;;;30.20;41.90;;;;;;4995142;28;20045;-87
2023/05/28 10:30:31;;;;;;;7.50;4.63;;;30.30;41.80;;;;;;4988897;28;20129;-90
2023/05/28 10:33:07;;;;;;;14.25;11.20;;;30.40;41.80;;;;;;4992957;28;20036;-88
2023/05/28 10:35:35;;;;;;;22.05;19.60;;;30.50;41.70;;;;;;4997744;28;20038;-85
2023/05/28 10:38:08;;;;;;;24.20;20.50;;;30.50;41.60;;;;;;4995607;28;20105;-86
2023/05/28 10:40:35;;;;;;;28.05;24.65;;;30.60;41.50;;;;;;4995838;28;20042;-87
2023/05/28 10:43:02;;;;;;;35.65;31.40;;;30.70;41.50;;;;;;4997181;28;20084;-85
2023/05/28 10:45:36;;;;;;;38.17;34.10;;;30.80;41.60;;;;;;4994996;28;20375;-84
2023/05/28 10:48:02;;;;;;;35.97;32.25;;;30.90;41.50;;;;;;4988006;28;20971;-83
2023/05/28 10:50:54;;;;;;;;;;;31.00;41.40;;;;;;4993302;28;20038;-84
2023/05/28 10:53:20;;;;;;;28.75;24.08;;;31.00;41.30;;;;;;4993510;28;19913;-85
2023/05/28 10:55:51;;;;;;;30.83;26.10;;;31.20;41.20;;;;;;4997613;28;20044;-84
2023/05/28 10:58:38;;;;;;;17.20;15.38;;;31.30;41.00;;;;;;4976848;28;20227;-87
2023/05/28 11:01:18;;;;;;;18.73;16.50;;;31.50;40.50;;;;;;4989316;28;20046;-83
2023/05/28 11:03:51;;;;;;;22.42;20.02;;;31.60;40.30;;;;;;4996091;28;20129;-81
2023/05/28 11:06:20;;;;;;;21.05;18.85;;;31.90;40.20;;;;;;4976682;28;20066;-83
2023/05/28 11:08:48;;;;;;;8.98;7.32;;;32.00;40.10;;;;;;4994634;28;20055;-82
2023/05/28 11:11:16;;;;;;;10.75;8.43;;;32.10;39.60;;;;;;4997847;28;20046;-81
2023/05/28 11:13:47;;;;;;;9.13;8.18;;;32.10;39.10;;;;;;4993360;28;20545;-83
2023/05/28 11:16:16;;;;;;;11.25;9.00;;;32.20;38.90;;;;;;5003968;28;20061;-83
2023/05/28 11:19:02;;;;;;;10.82;8.73;;;32.30;38.80;;;;;;4996941;28;20292;-83
2023/05/28 11:21:29;;;;;;;10.38;9.00;;;32.30;38.70;;;;;;4995416;28;20038;-82
2023/05/28 11:24:05;;;;;;;12.77;9.30;;;32.30;38.90;;;;;;4996148;28;20599;-83
2023/05/28 11:26:33;;;;;;;10.60;8.90;;;32.30;38.90;;;;;;4996988;28;20037;-84
2023/05/28 11:29:06;;;;;;;8.20;7.18;;;32.30;39.00;;;;;;4989851;28;20053;-83
2023/05/28 11:31:42;;;;;;;9.60;7.60;;;32.30;39.00;;;;;;5000021;28;20037;-83
2023/05/28 11:34:08;;;;;;;8.68;6.93;;;32.30;38.90;;;;;;4996258;28;20489;-83
2023/05/28 11:36:42;;;;;;;9.27;7.43;;;32.40;39.00;;;;;;5000723;28;20060;-87
2023/05/28 11:39:08;;;;;;;8.25;6.15;;;32.40;39.00;;;;;;4997679;28;20030;-86
2023/05/28 11:41:34;;;;;;;9.93;6.70;;;32.40;39.00;;;;;;4988019;28;20087;-89
2023/05/28 11:44:18;;;;;;;8.23;6.57;;;32.50;38.90;;;;;;5000552;28;20033;-87
2023/05/28 11:46:44;;;;;;;7.38;5.72;;;32.50;38.90;;;;;;4996527;28;20171;-88
2023/05/28 11:49:11;;;;;;;9.63;6.65;;;32.50;38.80;;;;;;4996131;28;20834;-87
2023/05/28 11:52:01;;;;;;;6.57;5.40;;;32.40;38.70;;;;;;4934030;28;20132;-85
2023/05/28 11:54:30;;;;;;;7.53;5.25;;;32.40;38.80;;;;;;4991142;28;20049;-85
2023/05/28 11:56:56;;;;;;;6.05;5.28;;;32.40;38.70;;;;;;4997518;28;20092;-86
2023/05/28 11:59:25;;;;;;;6.35;5.15;;;32.40;38.80;;;;;;4997730;28;20038;-84
2023/05/28 12:02:18;;;;;;;4.97;4.53;;;32.30;38.80;;;;;;4990922;28;20481;-85
2023/05/28 12:05:03;;;;;;;7.57;5.55;;;32.30;38.90;;;;;;4991790;28;20030;-84
2023/05/28 12:07:46;;;;;;;6.70;4.65;;;32.30;38.70;;;;;;4998285;28;20076;-83
2023/05/28 12:10:20;;;;;;;4.97;4.32;;;32.40;38.90;;;;;;4996928;28;20029;-85
2023/05/28 12:12:56;;;;;;;5.82;4.20;;;32.40;38.80;;;;;;4998715;28;20180;-84
2023/05/28 12:15:29;;;;;;;5.30;4.65;;;32.60;38.80;;;;;;4994613;28;20091;-84
2023/05/28 12:18:03;;;;;;;7.00;4.25;;;32.60;38.60;;;;;;4993257;28;20076;-83
2023/05/28 12:20:32;;;;;;;5.43;4.63;;;32.80;38.60;;;;;;4997414;28;20061;-82
2023/05/28 12:23:06;;;;;;;5.47;4.20;;;32.90;38.50;;;;;;4994931;28;20655;-81
2023/05/28 12:25:51;;;;;;;5.13;4.38;;;32.90;38.40;;;;;;5013098;28;20044;-83
2023/05/28 12:28:19;;;;;;;5.03;4.50;;;33.10;38.40;;;;;;4988789;28;20042;-84
2023/05/28 12:30:52;;;;;;;4.68;3.80;;;33.20;38.30;;;;;;4991404;28;20563;-84
2023/05/28 12:33:20;;;;;;;5.40;4.03;;;33.30;38.20;;;;;;4995043;28;20065;-84
2023/05/28 12:35:46;;;;;;;6.18;4.20;;;33.30;38.20;;;;;;4998247;28;20057;-79
2023/05/28 12:38:15;;;;;;;5.57;3.67;;;33.20;38.20;;;;;;4999649;28;20037;-86
2023/05/28 12:40:47;;;;;;;;;;;33.20;38.20;;;;;;5000035;28;20042;-85
2023/05/28 12:43:15;;;;;;;7.68;3.90;;;33.20;38.30;;;;;;4988415;28;20297;-85
2023/05/28 12:45:41;;;;;;;3.92;3.33;;;33.20;38.30;;;;;;4995257;28;20111;-88
2023/05/28 12:48:25;;;;;;;4.80;3.58;;;33.30;38.30;;;;;;4985384;28;20136;-82
2023/05/28 12:50:53;;;;;;;3.65;3.17;;;33.40;38.20;;;;;;4993607;28;20393;-82
2023/05/28 12:53:22;;;;;;;6.03;4.07;;;33.50;38.30;;;;;;4992959;28;20033;-86
2023/05/28 12:55:48;;;;;;;4.88;4.10;;;33.50;38.00;;;;;;4994447;28;20678;-88
2023/05/28 12:58:14;;;;;;;5.35;3.67;;;33.40;37.50;;;;;;4990930;28;20293;-87
2023/05/28 13:00:43;;;;;;;4.05;3.25;;;33.20;37.20;;;;;;5012100;28;20121;-88
2023/05/28 13:03:09;;;;;;;6.03;4.07;;;33.00;37.20;;;;;;4991963;28;20109;-81
2023/05/28 13:05:36;;;;;;;6.38;4.40;;;32.80;37.10;;;;;;4997052;28;20535;-86
2023/05/28 13:08:02;;;;;;;6.38;3.97;;;32.60;37.00;;;;;;4996651;28;20911;-88